createdAt,value
2018-08-06T00:00:29.084Z,101583.53
2018-08-06T00:02:57.515Z,101583.77
2018-08-06T00:05:25.856Z,101581.24
2018-08-06T00:07:54.191Z,101579.09
2018-08-06T00:10:24.456Z,101571.83
2018-08-06T00:12:52.866Z,101571.63
2018-08-06T00:15:21.804Z,101565.54
2018-08-06T00:17:50.149Z,101563.69
2018-08-06T00:20:18.596Z,101565.73
2018-08-06T00:22:46.908Z,101573.34
2018-08-06T00:25:16.169Z,101564.89
2018-08-06T00:27:44.841Z,101568.10
2018-08-06T00:30:18.223Z,101561.12
2018-08-06T00:32:47.343Z,101565.78
2018-08-06T00:35:16.160Z,101562.13
2018-08-06T00:37:45.493Z,101564.34
2018-08-06T00:40:16.266Z,101568.31
2018-08-06T00:42:45.365Z,101568.05
2018-08-06T00:45:16.651Z,101564.63
2018-08-06T00:47:45.609Z,101562.79
2018-08-06T00:50:14.046Z,101564.57
2018-08-06T00:52:42.392Z,101561.13
2018-08-06T00:55:13.185Z,101563.09
2018-08-06T00:57:41.792Z,101564.57
2018-08-06T01:00:12.882Z,101562.42
2018-08-06T01:02:41.203Z,101563.47
2018-08-06T01:05:11.128Z,101558.23
2018-08-06T01:07:40.115Z,101566.81
2018-08-06T01:10:10.534Z,101570.28
2018-08-06T01:12:40.045Z,101563.91
2018-08-06T01:15:09.595Z,101569.34
2018-08-06T01:17:38.133Z,101569.45
2018-08-06T01:20:08.096Z,101565.27
2018-08-06T01:22:36.632Z,101568.18
2018-08-06T01:25:05.320Z,101562.74
2018-08-06T01:27:34.209Z,101571.01
2018-08-06T01:30:03.000Z,101566.82
2018-08-06T01:32:31.379Z,101565.87
2018-08-06T01:34:59.712Z,101563.23
2018-08-06T01:37:28.083Z,101563.95
2018-08-06T01:39:56.412Z,101566.25
2018-08-06T01:42:24.723Z,101565.80
2018-08-06T01:44:53.067Z,101559.56
2018-08-06T01:47:21.407Z,101552.50
2018-08-06T01:49:49.775Z,101550.73
2018-08-06T01:52:18.307Z,101552.09
2018-08-06T01:54:46.598Z,101551.44
2018-08-06T01:57:14.924Z,101547.82
2018-08-06T01:59:43.756Z,101551.63
2018-08-06T02:02:12.112Z,101551.14
2018-08-06T02:04:40.508Z,101547.25
2018-08-06T02:07:09.193Z,101541.81
2018-08-06T02:09:37.676Z,101541.63
2018-08-06T02:12:06.501Z,101550.15
2018-08-06T02:14:34.953Z,101547.05
2018-08-06T02:17:03.335Z,101551.33
2018-08-06T02:19:31.663Z,101545.33
2018-08-06T02:21:59.983Z,101546.67
2018-08-06T02:24:28.319Z,101542.98
2018-08-06T02:26:56.669Z,101547.84
2018-08-06T02:29:24.996Z,101546.86
2018-08-06T02:31:53.299Z,101541.83
2018-08-06T02:34:21.643Z,101544.10
2018-08-06T02:36:49.974Z,101540.81
2018-08-06T02:39:18.319Z,101537.70
2018-08-06T02:41:46.668Z,101543.73
2018-08-06T02:44:15.015Z,101538.37
2018-08-06T02:46:43.344Z,101539.34
2018-08-06T02:49:11.689Z,101532.86
2018-08-06T02:51:40.355Z,101538.95
2018-08-06T02:54:08.698Z,101540.40
2018-08-06T02:56:37.057Z,101541.48
2018-08-06T02:59:05.412Z,101541.47
2018-08-06T03:01:33.743Z,101541.77
2018-08-06T03:04:02.208Z,101542.73
2018-08-06T03:06:30.548Z,101544.84
2018-08-06T03:08:58.908Z,101546.98
2018-08-06T03:11:27.290Z,101545.91
2018-08-06T03:13:55.616Z,101544.06
2018-08-06T03:16:23.957Z,101550.85
2018-08-06T03:18:52.468Z,101549.19
2018-08-06T03:21:20.806Z,101549.67
2018-08-06T03:23:49.150Z,101546.94
2018-08-06T03:26:17.455Z,101545.20
2018-08-06T03:28:45.816Z,101544.02
2018-08-06T03:31:14.148Z,101547.91
2018-08-06T03:33:42.491Z,101549.44
2018-08-06T03:36:11.047Z,101552.54
2018-08-06T03:38:39.377Z,101553.16
2018-08-06T03:41:07.750Z,101557.59
2018-08-06T03:43:36.124Z,101551.57
2018-08-06T03:46:04.464Z,101559.40
2018-08-06T03:48:32.850Z,101557.94
2018-08-06T03:51:01.196Z,101558.91
2018-08-06T03:53:29.531Z,101557.97
2018-08-06T03:55:57.878Z,101558.50
2018-08-06T03:58:26.219Z,101560.89
2018-08-06T04:00:54.561Z,101558.67
2018-08-06T04:03:22.923Z,101555.40
2018-08-06T04:05:51.268Z,101564.80
2018-08-06T04:08:19.649Z,101565.66
2018-08-06T04:10:47.998Z,101566.43
2018-08-06T04:13:16.350Z,101566.25
2018-08-06T04:15:44.688Z,101567.09
2018-08-06T04:18:13.114Z,101569.34
2018-08-06T04:20:41.441Z,101568.38
2018-08-06T04:23:09.809Z,101570.60
2018-08-06T04:27:02.609Z,101573.63
2018-08-06T04:29:30.954Z,101580.62
2018-08-06T04:31:59.300Z,101579.05
2018-08-06T04:34:27.652Z,101580.69
2018-08-06T04:36:56.000Z,101572.59
2018-08-06T04:39:24.333Z,101577.62
2018-08-06T04:41:52.688Z,101576.09
2018-08-06T04:44:21.024Z,101572.41
2018-08-06T04:46:50.328Z,101577.91
2018-08-06T04:49:18.678Z,101571.26
2018-08-06T04:51:47.076Z,101573.52
2018-08-06T04:54:15.454Z,101574.88
2018-08-06T04:56:43.814Z,101579.05
2018-08-06T04:59:12.146Z,101582.94
2018-08-06T05:01:40.621Z,101579.94
2018-08-06T05:04:08.972Z,101584.70
2018-08-06T05:06:37.295Z,101583.86
2018-08-06T05:09:09.068Z,101582.50
2018-08-06T05:11:37.618Z,101589.91
2018-08-06T05:14:05.970Z,101590.10
2018-08-06T05:16:34.306Z,101586.12
2018-08-06T05:19:02.631Z,101598.88
2018-08-06T05:21:30.949Z,101599.08
2018-08-06T05:24:00.130Z,101598.41
2018-08-06T05:26:29.517Z,101600.43
2018-08-06T05:28:57.852Z,101597.53
2018-08-06T05:31:27.403Z,101598.98
2018-08-06T05:33:56.501Z,101605.10
2018-08-06T05:36:25.402Z,101604.02
2018-08-06T05:38:55.216Z,101607.11
2018-08-06T05:41:24.820Z,101605.56
2018-08-06T05:43:54.314Z,101610.52
2018-08-06T05:46:22.683Z,101609.15
2018-08-06T05:48:51.106Z,101611.17
2018-08-06T05:51:19.446Z,101622.73
2018-08-06T05:53:47.787Z,101611.04
2018-08-06T05:56:16.370Z,101617.02
2018-08-06T05:58:44.719Z,101628.38
2018-08-06T06:01:13.062Z,101618.09
2018-08-06T06:03:41.387Z,101613.61
2018-08-06T06:06:10.152Z,101611.03
2018-08-06T06:08:39.454Z,101616.30
2018-08-06T06:11:08.524Z,101619.27
2018-08-06T06:13:36.869Z,101622.50
2018-08-06T06:16:05.276Z,101617.71
2018-08-06T06:18:33.600Z,101611.17
2018-08-06T06:21:01.955Z,101612.59
2018-08-06T06:23:30.282Z,101621.80
2018-08-06T06:25:58.630Z,101620.25
2018-08-06T06:28:27.146Z,101614.19
2018-08-06T06:30:55.489Z,101616.20
2018-08-06T06:33:23.801Z,101617.16
2018-08-06T06:35:52.191Z,101614.44
2018-08-06T06:38:20.512Z,101605.09
2018-08-06T06:40:48.867Z,101609.92
2018-08-06T06:43:17.203Z,101606.45
2018-08-06T06:45:45.544Z,101613.16
2018-08-06T06:48:13.855Z,101607.38
2018-08-06T06:50:42.183Z,101615.19
2018-08-06T06:53:10.523Z,101613.00
2018-08-06T06:55:38.904Z,101616.88
2018-08-06T06:58:07.279Z,101610.77
2018-08-06T07:00:35.614Z,101616.62
2018-08-06T07:03:03.980Z,101614.14
2018-08-06T07:05:32.349Z,101614.30
2018-08-06T07:08:00.722Z,101620.05
2018-08-06T07:10:29.036Z,101609.69
2018-08-06T07:12:57.352Z,101601.95
2018-08-06T07:15:25.735Z,101602.38
2018-08-06T07:17:54.077Z,101599.26
2018-08-06T07:20:22.426Z,101600.05
2018-08-06T07:22:51.024Z,101594.06
2018-08-06T07:25:19.383Z,101592.56
2018-08-06T07:27:47.749Z,101595.67
2018-08-06T07:30:16.265Z,101591.42
2018-08-06T07:32:45.068Z,101586.97
2018-08-06T07:35:14.264Z,101585.27
2018-08-06T07:37:42.743Z,101579.41
2018-08-06T07:40:13.512Z,101587.97
2018-08-06T07:42:41.845Z,101578.59
2018-08-06T07:45:17.684Z,101574.25
2018-08-06T07:47:46.695Z,101568.64
2018-08-06T07:50:16.609Z,101572.97
2018-08-06T07:52:44.963Z,101570.77
2018-08-06T07:55:13.300Z,101571.84
2018-08-06T07:57:41.657Z,101572.11
2018-08-06T08:00:14.020Z,101570.05
2018-08-06T08:02:42.705Z,101566.89
2018-08-06T08:05:12.925Z,101561.41
2018-08-06T08:07:42.339Z,101560.73
2018-08-06T08:10:14.200Z,101558.38
2018-08-06T08:12:42.776Z,101553.59
2018-08-06T08:15:14.941Z,101555.63
2018-08-06T08:17:44.254Z,101553.33
2018-08-06T08:20:14.172Z,101545.86
2018-08-06T08:22:42.680Z,101548.48
2018-08-06T08:25:13.147Z,101542.38
2018-08-06T08:27:41.492Z,101547.27
2018-08-06T08:30:11.540Z,101531.61
2018-08-06T08:32:39.888Z,101529.69
2018-08-06T08:35:08.505Z,101528.41
2018-08-06T08:37:36.900Z,101525.88
2018-08-06T08:40:14.206Z,101525.36
2018-08-06T08:42:42.651Z,101529.09
2018-08-06T08:45:13.115Z,101523.88
2018-08-06T08:47:42.392Z,101528.17
2018-08-06T08:50:12.388Z,101525.58
2018-08-06T08:52:41.647Z,101524.49
2018-08-06T08:55:10.803Z,101515.48
2018-08-06T08:57:39.348Z,101516.94
2018-08-06T09:00:11.414Z,101521.34
2018-08-06T09:02:39.725Z,101516.42
2018-08-06T09:05:08.103Z,101521.20
2018-08-06T09:07:37.113Z,101512.97
2018-08-06T09:10:06.431Z,101508.76
2018-08-06T09:12:34.778Z,101507.70
2018-08-06T09:15:03.152Z,101508.67
2018-08-06T09:17:31.607Z,101506.96
2018-08-06T09:19:59.994Z,101498.59
2018-08-06T09:22:28.327Z,101495.71
2018-08-06T09:24:56.675Z,101497.23
2018-08-06T09:27:25.125Z,101497.18
2018-08-06T09:29:53.468Z,101491.35
2018-08-06T09:32:21.809Z,101483.44
2018-08-06T09:34:50.154Z,101486.85
2018-08-06T09:37:18.494Z,101479.16
2018-08-06T09:39:46.845Z,101483.62
2018-08-06T09:42:15.176Z,101475.52
2018-08-06T09:44:43.527Z,101483.75
2018-08-06T09:47:11.866Z,101480.91
2018-08-06T09:49:40.496Z,101476.56
2018-08-06T09:52:08.843Z,101479.41
2018-08-06T09:54:37.194Z,101471.41
2018-08-06T09:57:05.684Z,101474.70
2018-08-06T09:59:34.052Z,101464.57
2018-08-06T10:02:02.399Z,101462.55
2018-08-06T10:04:30.771Z,101459.50
2018-08-06T10:06:59.120Z,101451.75
2018-08-06T10:09:27.446Z,101450.73
2018-08-06T10:11:55.816Z,101445.96
2018-08-06T10:14:24.175Z,101443.49
2018-08-06T10:16:52.498Z,101441.98
2018-08-06T10:19:20.867Z,101443.98
2018-08-06T10:21:49.187Z,101435.14
2018-08-06T10:24:17.533Z,101442.21
2018-08-06T10:26:45.885Z,101435.16
2018-08-06T10:29:14.221Z,101423.08
2018-08-06T10:31:42.524Z,101436.16
2018-08-06T10:34:10.860Z,101432.72
2018-08-06T10:36:39.210Z,101440.10
2018-08-06T10:39:10.048Z,101429.47
2018-08-06T10:41:38.810Z,101427.52
2018-08-06T10:44:07.180Z,101421.64
2018-08-06T10:46:35.532Z,101421.87
2018-08-06T10:49:03.868Z,101417.45
2018-08-06T10:51:32.296Z,101424.06
2018-08-06T10:54:01.506Z,101418.16
2018-08-06T10:56:29.841Z,101414.45
2018-08-06T10:58:58.381Z,101407.86
2018-08-06T11:01:26.689Z,101409.01
2018-08-06T11:03:55.109Z,101405.04
2018-08-06T11:06:23.460Z,101416.02
2018-08-06T11:08:51.878Z,101402.44
2018-08-06T11:11:20.220Z,101402.33
2018-08-06T11:13:48.552Z,101405.91
2018-08-06T11:16:16.903Z,101405.50
2018-08-06T11:18:45.256Z,101400.82
2018-08-06T11:21:13.609Z,101396.75
2018-08-06T11:23:41.953Z,101397.81
2018-08-06T11:26:10.285Z,101390.79
2018-08-06T11:28:38.707Z,101390.08
2018-08-06T11:31:07.046Z,101391.78
2018-08-06T11:33:35.376Z,101387.06
2018-08-06T11:36:03.757Z,101398.56
2018-08-06T11:38:32.215Z,101386.66
2018-08-06T11:41:00.561Z,101385.05
2018-08-06T11:43:28.976Z,101379.80
2018-08-06T11:45:57.283Z,101380.55
2018-08-06T11:48:25.661Z,101377.83
2018-08-06T11:50:54.030Z,101381.27
2018-08-06T11:53:22.388Z,101375.37
2018-08-06T11:55:50.701Z,101375.55
2018-08-06T11:58:19.024Z,101377.76
2018-08-06T12:00:47.417Z,101379.11
2018-08-06T12:03:15.800Z,101378.57
2018-08-06T12:05:44.144Z,101375.08
2018-08-06T12:08:12.492Z,101367.08
2018-08-06T12:10:40.819Z,101368.77
2018-08-06T12:13:09.163Z,101370.56
2018-08-06T12:15:37.514Z,101361.71
2018-08-06T12:18:06.690Z,101359.60
2018-08-06T12:20:35.056Z,101358.92
2018-08-06T12:23:03.383Z,101355.75
2018-08-06T12:25:31.747Z,101348.50
2018-08-06T12:28:00.104Z,101356.41
2018-08-06T12:30:28.423Z,101352.08
2018-08-06T12:32:56.761Z,101346.63
2018-08-06T12:35:25.080Z,101345.09
2018-08-06T12:37:53.416Z,101344.20
2018-08-06T12:40:22.841Z,101344.92
2018-08-06T12:42:51.425Z,101342.78
2018-08-06T12:45:19.763Z,101341.86
2018-08-06T12:47:48.492Z,101348.84
2018-08-06T12:50:17.528Z,101347.27
2018-08-06T12:52:46.069Z,101337.30
2018-08-06T12:55:15.968Z,101328.48
2018-08-06T12:57:44.920Z,101329.30
2018-08-06T13:00:18.669Z,101324.13
2018-08-06T13:02:47.767Z,101322.06
2018-08-06T13:05:16.358Z,101318.61
2018-08-06T13:07:44.733Z,101318.59
2018-08-06T13:10:13.318Z,101308.59
2018-08-06T13:12:41.659Z,101318.24
2018-08-06T13:15:11.894Z,101313.25
2018-08-06T13:17:40.647Z,101314.98
2018-08-06T13:20:09.579Z,101306.17
2018-08-06T13:22:37.900Z,101304.97
2018-08-06T13:25:08.720Z,101299.64
2018-08-06T13:27:37.214Z,101305.49
2018-08-06T13:30:08.434Z,101303.94
2018-08-06T13:32:36.800Z,101298.94
2018-08-06T13:35:05.283Z,101296.75
2018-08-06T13:37:33.634Z,101298.11
2018-08-06T13:40:01.991Z,101296.04
2018-08-06T13:42:30.766Z,101290.84
2018-08-06T13:44:59.184Z,101289.59
2018-08-06T13:47:27.510Z,101283.07
2018-08-06T13:49:55.891Z,101285.97
2018-08-06T13:52:24.531Z,101292.00
2018-08-06T13:54:52.894Z,101287.53
2018-08-06T13:57:21.283Z,101277.52
2018-08-06T13:59:49.620Z,101275.94
2018-08-06T14:02:19.155Z,101266.96
2018-08-06T14:04:47.508Z,101264.69
2018-08-06T14:07:15.976Z,101257.45
2018-08-06T14:09:44.466Z,101258.52
2018-08-06T14:12:12.845Z,101253.17
2018-08-06T14:14:41.208Z,101252.28
2018-08-06T14:17:09.566Z,101250.05
2018-08-06T14:19:37.915Z,101246.29
2018-08-06T14:22:06.264Z,101249.41
2018-08-06T14:24:34.611Z,101240.78
2018-08-06T14:27:03.027Z,101241.27
2018-08-06T14:29:31.403Z,101240.23
2018-08-06T14:31:59.748Z,101243.85
2018-08-06T14:34:28.132Z,101245.39
2018-08-06T14:36:56.506Z,101242.47
2018-08-06T14:39:24.881Z,101233.97
2018-08-06T14:41:53.239Z,101237.10
2018-08-06T14:44:21.566Z,101234.72
2018-08-06T14:46:49.952Z,101231.22
2018-08-06T14:49:19.023Z,101221.23
2018-08-06T14:51:47.455Z,101230.22
2018-08-06T14:54:15.768Z,101227.95
2018-08-06T14:56:44.115Z,101228.46
2018-08-06T14:59:12.476Z,101228.12
2018-08-06T15:01:40.808Z,101233.29
2018-08-06T15:04:09.253Z,101222.59
2018-08-06T15:06:37.588Z,101225.34
2018-08-06T15:09:08.840Z,101217.39
2018-08-06T15:11:37.331Z,101221.87
2018-08-06T15:14:06.507Z,101221.87
2018-08-06T15:16:34.902Z,101216.36
2018-08-06T15:19:03.325Z,101216.53
2018-08-06T15:21:31.657Z,101204.97
2018-08-06T15:24:00.248Z,101204.50
2018-08-06T15:26:28.624Z,101202.23
2018-08-06T15:28:57.072Z,101197.59
2018-08-06T15:31:25.469Z,101195.34
2018-08-06T15:33:54.162Z,101197.56
2018-08-06T15:36:22.693Z,101193.63
2018-08-06T15:38:51.029Z,101192.23
2018-08-06T15:41:19.406Z,101194.64
2018-08-06T15:43:47.830Z,101191.52
2018-08-06T15:46:16.168Z,101186.70
2018-08-06T15:48:45.060Z,101177.20
2018-08-06T15:51:13.457Z,101185.95
2018-08-06T15:53:41.793Z,101178.70
2018-08-06T15:56:10.121Z,101175.92
2018-08-06T15:58:38.520Z,101171.05
2018-08-06T16:01:06.930Z,101173.47
2018-08-06T16:03:35.364Z,101177.25
2018-08-06T16:06:03.712Z,101169.83
2018-08-06T16:08:32.089Z,101174.13
2018-08-06T16:11:00.427Z,101166.36
2018-08-06T16:13:28.849Z,101160.48
2018-08-06T16:15:57.192Z,101165.47
2018-08-06T16:18:25.548Z,101157.18
2018-08-06T16:20:53.953Z,101153.40
2018-08-06T16:23:22.401Z,101148.60
2018-08-06T16:25:50.818Z,101145.55
2018-08-06T16:28:19.229Z,101141.06
2018-08-06T16:30:47.650Z,101145.87
2018-08-06T16:33:16.093Z,101144.86
2018-08-06T16:35:44.504Z,101143.81
2018-08-06T16:38:12.920Z,101142.06
2018-08-06T16:40:41.329Z,101137.98
2018-08-06T16:43:09.703Z,101133.66
2018-08-06T16:45:38.050Z,101131.85
2018-08-06T16:48:06.459Z,101129.84
2018-08-06T16:50:34.841Z,101130.14
2018-08-06T16:53:03.225Z,101126.06
2018-08-06T16:55:31.707Z,101129.16
2018-08-06T16:58:00.123Z,101130.84
2018-08-06T17:00:28.469Z,101123.27
2018-08-06T17:02:56.831Z,101122.97
2018-08-06T17:05:25.180Z,101120.34
2018-08-06T17:07:53.526Z,101120.05
2018-08-06T17:10:22.267Z,101115.41
2018-08-06T17:12:52.170Z,101114.73
2018-08-06T17:15:21.500Z,101120.91
2018-08-06T17:17:51.068Z,101111.77
2018-08-06T17:20:20.861Z,101105.74
2018-08-06T17:22:50.204Z,101108.34
2018-08-06T17:25:18.715Z,101110.63
2018-08-06T17:27:47.100Z,101110.25
2018-08-06T17:30:16.293Z,101108.32
2018-08-06T17:32:44.665Z,101109.57
2018-08-06T17:35:13.675Z,101101.07
2018-08-06T17:37:42.115Z,101107.08
2018-08-06T17:40:15.724Z,101102.61
2018-08-06T17:42:44.130Z,101109.13
2018-08-06T17:45:15.741Z,101100.86
2018-08-06T17:47:44.152Z,101103.45
2018-08-06T17:50:14.789Z,101097.58
2018-08-06T17:52:43.864Z,101100.14
2018-08-06T17:55:12.272Z,101095.31
2018-08-06T17:57:40.768Z,101099.92
2018-08-06T18:00:10.068Z,101098.73
2018-08-06T18:02:38.490Z,101093.89
2018-08-06T18:05:08.924Z,101096.64
2018-08-06T18:07:37.500Z,101089.42
2018-08-06T18:10:07.682Z,101089.23
2018-08-06T18:12:36.231Z,101093.34
2018-08-06T18:15:04.930Z,101093.66
2018-08-06T18:17:33.390Z,101099.28
2018-08-06T18:20:01.953Z,101092.74
2018-08-06T18:22:30.338Z,101095.47
2018-08-06T18:24:58.755Z,101094.93
2018-08-06T18:27:27.129Z,101105.71
2018-08-06T18:29:55.536Z,101101.90
2018-08-06T18:32:23.908Z,101106.86
2018-08-06T18:34:52.336Z,101104.42
2018-08-06T18:37:20.788Z,101105.59
2018-08-06T18:39:49.224Z,101104.84
2018-08-06T18:42:17.679Z,101113.75
2018-08-06T18:44:46.066Z,101111.63
2018-08-06T18:47:14.541Z,101110.86
2018-08-06T18:49:42.918Z,101110.80
2018-08-06T18:52:11.285Z,101109.04
2018-08-06T18:54:39.630Z,101110.34
2018-08-06T18:57:08.006Z,101114.73
2018-08-06T18:59:36.437Z,101118.60
2018-08-06T19:02:04.917Z,101125.22
2018-08-06T19:04:33.395Z,101121.17
2018-08-06T19:07:01.846Z,101124.05
2018-08-06T19:09:30.329Z,101120.18
2018-08-06T19:12:03.978Z,101125.06
2018-08-06T19:14:32.455Z,101124.64
2018-08-06T19:17:00.923Z,101129.87
2018-08-06T19:19:29.918Z,101125.00
2018-08-06T19:21:58.909Z,101133.32
2018-08-06T19:24:32.647Z,101130.34
2018-08-06T19:27:01.094Z,101128.53
2018-08-06T19:29:29.604Z,101128.28
2018-08-06T19:31:58.054Z,101126.64
2018-08-06T19:34:26.534Z,101124.48
2018-08-06T19:37:00.346Z,101126.81
2018-08-06T19:39:28.755Z,101126.05
2018-08-06T19:41:57.162Z,101128.48
2018-08-06T19:44:25.588Z,101127.34
2018-08-06T19:46:53.964Z,101129.90
2018-08-06T19:49:27.804Z,101134.08
2018-08-06T19:51:56.288Z,101131.94
2018-08-06T19:54:24.755Z,101135.70
2018-08-06T19:56:53.192Z,101129.56
2018-08-06T19:59:21.734Z,101133.10
2018-08-06T20:01:50.236Z,101126.78
2018-08-06T20:04:18.654Z,101130.50
2018-08-06T20:06:47.135Z,101128.71
2018-08-06T20:09:15.618Z,101124.17
2018-08-06T20:11:44.006Z,101127.32
2018-08-06T20:14:12.374Z,101120.52
2018-08-06T20:16:40.759Z,101121.81
2018-08-06T20:19:09.905Z,101121.39
2018-08-06T20:21:38.349Z,101124.05
2018-08-06T20:24:07.230Z,101125.34
2018-08-06T20:26:35.720Z,101119.79
2018-08-06T20:29:04.166Z,101123.82
2018-08-06T20:31:32.521Z,101128.56
2018-08-06T20:34:00.926Z,101125.63
2018-08-06T20:36:29.389Z,101121.36
2018-08-06T20:38:57.868Z,101130.32
2018-08-06T20:41:26.223Z,101126.84
2018-08-06T20:43:54.644Z,101123.08
2018-08-06T20:46:23.002Z,101125.12
2018-08-06T20:48:51.423Z,101132.98
2018-08-06T20:51:19.812Z,101133.48
2018-08-06T20:53:48.199Z,101136.70
2018-08-06T20:56:16.576Z,101135.99
2018-08-06T20:58:45.143Z,101135.76
2018-08-06T21:01:13.543Z,101135.76
2018-08-06T21:03:41.900Z,101134.19
2018-08-06T21:06:10.344Z,101141.39
2018-08-06T21:08:38.761Z,101142.25
2018-08-06T21:11:07.708Z,101148.01
2018-08-06T21:13:36.214Z,101145.57
2018-08-06T21:16:04.642Z,101138.22
2018-08-06T21:18:33.228Z,101139.70
2018-08-06T21:21:01.599Z,101140.57
2018-08-06T21:23:29.961Z,101141.59
2018-08-06T21:25:58.396Z,101144.67
2018-08-06T21:28:26.881Z,101140.88
2018-08-06T21:30:55.246Z,101143.46
2018-08-06T21:33:23.686Z,101140.41
2018-08-06T21:35:52.109Z,101137.66
2018-08-06T21:38:20.527Z,101140.05
2018-08-06T21:40:48.906Z,101143.45
2018-08-06T21:43:17.358Z,101144.42
2018-08-06T21:45:45.798Z,101144.07
2018-08-06T21:48:14.215Z,101144.07
2018-08-06T21:50:42.628Z,101143.72
2018-08-06T21:53:10.995Z,101140.47
2018-08-06T21:55:39.435Z,101147.08
2018-08-06T21:58:07.827Z,101144.34
2018-08-06T22:00:38.830Z,101138.52
2018-08-06T22:03:14.694Z,101143.63
2018-08-06T22:05:43.304Z,101139.64
2018-08-06T22:08:11.730Z,101145.78
2018-08-06T22:10:40.354Z,101147.62
2018-08-06T22:13:09.551Z,101146.88
2018-08-06T22:15:38.010Z,101148.40
2018-08-06T22:18:07.105Z,101143.55
2018-08-06T22:20:35.478Z,101142.69
2018-08-06T22:23:03.848Z,101146.70
2018-08-06T22:25:32.258Z,101149.74
2018-08-06T22:28:00.683Z,101147.98
2018-08-06T22:30:29.108Z,101144.30
2018-08-06T22:32:57.553Z,101147.30
2018-08-06T22:35:25.916Z,101154.30
2018-08-06T22:37:54.400Z,101145.73
2018-08-06T22:40:22.805Z,101141.73
2018-08-06T22:42:51.169Z,101141.29
2018-08-06T22:45:19.552Z,101151.11
2018-08-06T22:47:47.954Z,101148.40
2018-08-06T22:50:16.320Z,101146.16
2018-08-06T22:52:44.700Z,101144.34
2018-08-06T22:55:13.536Z,101145.87
2018-08-06T22:57:42.538Z,101142.80
2018-08-06T23:00:12.952Z,101142.05
2018-08-06T23:02:41.734Z,101142.70
2018-08-06T23:05:11.004Z,101138.14
2018-08-06T23:07:39.435Z,101143.38
2018-08-06T23:10:10.232Z,101144.64
2018-08-06T23:12:38.582Z,101133.45
2018-08-06T23:15:09.243Z,101132.86
2018-08-06T23:17:37.843Z,101141.95
2018-08-06T23:20:07.038Z,101137.47
2018-08-06T23:22:35.420Z,101130.79
2018-08-06T23:25:04.199Z,101135.00
2018-08-06T23:27:32.539Z,101129.69
2018-08-06T23:30:01.168Z,101125.38
2018-08-06T23:32:29.548Z,101132.82
2018-08-06T23:34:57.931Z,101128.52
2018-08-06T23:37:26.325Z,101124.43
2018-08-06T23:39:54.739Z,101122.20
2018-08-06T23:42:23.093Z,101123.72
2018-08-06T23:44:51.473Z,101121.34
2018-08-06T23:47:19.815Z,101114.56
2018-08-06T23:49:48.212Z,101116.58
2018-08-06T23:52:16.652Z,101114.61
2018-08-06T23:54:45.004Z,101116.62
2018-08-06T23:57:13.366Z,101115.91
2018-08-06T23:59:41.785Z,101110.09
